Manes, Missouri
Current Conditions -  °F | °C
As of 2:58 AM on Sunday 21 Dec 2014 (Local Time) from KTBN Reporting Station
Overcast Overcast  
Wind Chill: 36°   Ceiling: 2300
Heat Index: 39°   Visibility: 10mi
Dew Point: 37°   Wind: 5mph
Humidity: 93%   Direction: 170°S
Pressure: 30.15"   Gusts: NA
Location:  37.2656°N, 92.3257°W
Report Text: KTBN 210858Z AUTO 17004KT 10SM OVC023 04/03 A3015 RMK AO2 SLP219 T00410030 57011 $
Loading
Personal Weather Stations






























Interactive Weather Map New forecast layout! Learn more

10-Day Weather Forecast

Advertisements
Track Severe Weather on mobile